Time;durP1;ratioP1;P1;durP2;ratioP2;P2;SDS_P1;SDS_P2;PMS_P1;PMS_P2;Temp;Humidity;BMP_temperature;BMP_pressure;BME280_temperature;BME280_humidity;BME280_pressure;Samples;Min_cycle;Max_cycle;Signal;HPM_P1;HPM_P2
2023/02/14 00:00:32;;;;;;;24.90;17.60;;;8.90;1.00;;;;;;5055421;28;20218;-59
2023/02/14 00:02:58;;;;;;;26.70;19.43;;;8.90;1.00;;;;;;5055397;28;20977;-58
2023/02/14 00:05:23;;;;;;;24.50;18.17;;;9.00;1.00;;;;;;5061359;28;20518;-58
2023/02/14 00:07:49;;;;;;;25.73;18.10;;;9.00;1.00;;;;;;5055183;28;20233;-57
2023/02/14 00:10:15;;;;;;;27.70;19.30;;;9.10;1.00;;;;;;5047667;28;20720;-59
2023/02/14 00:12:41;;;;;;;30.10;20.60;;;9.10;1.00;;;;;;5052447;28;20195;-60
2023/02/14 00:15:22;;;;;;;27.37;19.50;;;9.00;1.00;;;;;;5059792;28;20237;-60
2023/02/14 00:17:53;;;;;;;29.07;19.03;;;9.10;1.00;;;;;;5053161;28;20190;-58
2023/02/14 00:20:20;;;;;;;24.43;17.80;;;9.00;1.00;;;;;;5063397;28;20483;-60
2023/02/14 00:22:45;;;;;;;25.83;19.33;;;9.10;1.00;;;;;;5055025;28;20441;-57
2023/02/14 00:25:11;;;;;;;31.50;21.67;;;9.00;1.00;;;;;;5060364;28;20442;-57
2023/02/14 00:27:37;;;;;;;28.10;19.50;;;8.90;1.00;;;;;;5045133;28;20184;-58
2023/02/14 00:30:03;;;;;;;27.50;18.37;;;8.90;1.00;;;;;;5048879;28;20252;-58
2023/02/14 00:32:29;;;;;;;27.07;19.00;;;8.80;1.00;;;;;;5061274;28;20193;-59
2023/02/14 00:34:55;;;;;;;27.20;19.73;;;8.80;1.00;;;;;;5058519;28;20434;-58
2023/02/14 00:37:21;;;;;;;27.90;18.97;;;8.80;1.00;;;;;;5060327;28;20497;-58
2023/02/14 00:39:47;;;;;;;26.20;18.80;;;8.80;1.00;;;;;;5040393;28;20452;-58
2023/02/14 00:42:13;;;;;;;27.50;18.40;;;8.80;1.00;;;;;;5040662;28;20444;-58
2023/02/14 00:44:39;;;;;;;26.13;17.80;;;8.80;1.00;;;;;;5034722;28;20221;-57
2023/02/14 00:47:05;;;;;;;25.57;18.10;;;8.90;1.00;;;;;;5064788;28;20416;-58
2023/02/14 00:49:31;;;;;;;23.47;17.57;;;8.80;1.00;;;;;;5074507;28;20973;-57
2023/02/14 00:51:56;;;;;;;27.73;18.57;;;8.70;1.00;;;;;;5074750;28;20209;-60
2023/02/14 00:54:22;;;;;;;27.53;17.70;;;8.80;1.00;;;;;;5074295;28;20250;-57
2023/02/14 00:56:47;;;;;;;22.90;17.90;;;8.80;1.00;;;;;;5055665;28;20201;-58
2023/02/14 00:59:13;;;;;;;25.63;17.60;;;8.80;1.00;;;;;;5045640;28;20624;-58
2023/02/14 01:01:39;;;;;;;26.47;18.83;;;8.80;1.00;;;;;;5053145;28;20187;-59
2023/02/14 01:04:05;;;;;;;22.17;15.63;;;8.80;1.00;;;;;;5074413;28;20191;-58
2023/02/14 01:06:30;;;;;;;20.53;15.67;;;8.80;1.00;;;;;;5058573;28;20938;-58
2023/02/14 01:08:56;;;;;;;22.40;15.57;;;8.70;1.00;;;;;;5069407;28;20238;-59
2023/02/14 01:11:23;;;;;;;23.70;16.87;;;8.70;1.00;;;;;;5060310;28;20208;-58
2023/02/14 01:13:50;;;;;;;22.93;15.40;;;8.70;1.00;;;;;;5053752;28;20434;-58
2023/02/14 01:16:22;;;;;;;22.83;15.20;;;8.60;1.00;;;;;;5054229;28;20444;-58
2023/02/14 01:18:48;;;;;;;22.63;16.50;;;8.60;1.00;;;;;;5053898;28;20913;-58
2023/02/14 01:21:22;;;;;;;23.20;16.80;;;8.60;1.00;;;;;;5048050;28;20471;-57
2023/02/14 01:23:50;;;;;;;22.43;15.80;;;8.60;1.00;;;;;;5053748;28;20902;-57
2023/02/14 01:26:17;;;;;;;27.53;17.20;;;8.60;1.00;;;;;;5062367;28;20438;-58
2023/02/14 01:28:43;;;;;;;22.37;15.73;;;8.60;1.00;;;;;;5073639;28;20442;-58
2023/02/14 01:31:14;;;;;;;23.20;18.00;;;8.50;1.00;;;;;;5063623;28;20466;-58
2023/02/14 01:33:42;;;;;;;23.20;16.50;;;8.60;1.00;;;;;;5053520;28;20442;-58
2023/02/14 01:36:25;;;;;;;22.23;15.40;;;8.70;1.00;;;;;;5053390;28;20448;-60
2023/02/14 01:38:53;;;;;;;25.47;16.97;;;8.70;1.00;;;;;;5053348;28;20442;-57
2023/02/14 01:41:19;;;;;;;25.77;17.90;;;8.80;1.00;;;;;;5055965;28;20453;-58
2023/02/14 01:44:06;;;;;;;22.90;16.13;;;8.80;1.00;;;;;;5061547;28;20540;-57
2023/02/14 01:46:34;;;;;;;26.37;18.53;;;8.80;1.00;;;;;;5040007;28;20480;-58
2023/02/14 01:49:19;;;;;;;20.50;16.07;;;8.80;1.00;;;;;;5062921;28;20924;-58
2023/02/14 01:52:07;;;;;;;21.77;15.00;;;8.70;1.00;;;;;;5052597;28;20748;-59
2023/02/14 01:54:34;;;;;;;24.30;16.13;;;8.60;1.00;;;;;;5045638;28;20482;-58
2023/02/14 01:57:06;;;;;;;23.60;16.07;;;8.60;1.00;;;;;;5056737;28;20421;-59
2023/02/14 01:59:39;;;;;;;27.27;18.60;;;8.70;1.00;;;;;;5055680;28;20910;-57
2023/02/14 02:02:06;;;;;;;25.50;17.00;;;8.50;1.00;;;;;;5048240;28;20464;-58
2023/02/14 02:04:36;;;;;;;23.07;16.67;;;8.70;1.00;;;;;;5042428;28;20540;-58
2023/02/14 02:07:06;;;;;;;27.50;17.73;;;8.80;1.00;;;;;;5039454;28;20442;-58
2023/02/14 02:09:33;;;;;;;23.73;16.57;;;8.70;1.00;;;;;;5051227;28;20953;-58
2023/02/14 02:12:00;;;;;;;24.10;16.50;;;8.80;1.00;;;;;;5052814;28;20500;-59
2023/02/14 02:14:26;;;;;;;24.13;17.43;;;8.80;1.00;;;;;;5046622;28;20463;-57
2023/02/14 02:17:23;;;;;;;24.27;17.47;;;8.80;1.00;;;;;;5061512;28;20487;-59
2023/02/14 02:20:18;;;;;;;21.60;16.43;;;8.80;1.00;;;;;;5039882;28;20923;-58
2023/02/14 02:22:50;;;;;;;22.40;17.20;;;8.80;1.00;;;;;;5053647;28;20446;-59
2023/02/14 02:25:36;;;;;;;25.10;16.20;;;8.70;1.00;;;;;;5052473;28;20455;-57
2023/02/14 02:28:23;;;;;;;29.00;19.07;;;8.60;1.00;;;;;;5043292;28;20488;-59
2023/02/14 02:31:08;;;;;;;25.50;17.03;;;8.60;1.00;;;;;;5048504;28;20501;-59
2023/02/14 02:33:48;;;;;;;24.30;17.80;;;8.60;1.00;;;;;;5037281;28;20438;-58
2023/02/14 02:36:31;;;;;;;30.10;18.07;;;8.60;1.00;;;;;;5037744;28;20530;-59
2023/02/14 02:39:12;;;;;;;26.43;18.27;;;8.60;1.00;;;;;;5050398;28;20504;-58
2023/02/14 02:41:52;;;;;;;23.60;17.20;;;8.50;1.00;;;;;;5046106;28;20508;-58
2023/02/14 02:44:25;;;;;;;24.37;16.97;;;8.50;1.00;;;;;;5034618;28;20793;-59
2023/02/14 02:47:20;;;;;;;23.43;16.40;;;8.50;1.00;;;;;;5045248;28;20462;-58
2023/02/14 02:53:02;;;;;;;24.83;17.27;;;8.40;1.00;;;;;;5050587;28;20497;-60
2023/02/14 02:59:03;;;;;;;28.93;19.20;;;8.40;1.00;;;;;;5063326;28;20503;-58
2023/02/14 03:01:34;;;;;;;24.40;16.97;;;8.50;1.00;;;;;;5044059;28;20788;-59
2023/02/14 03:06:50;;;;;;;24.13;16.13;;;8.50;1.00;;;;;;5059374;28;20849;-59
2023/02/14 03:09:19;;;;;;;27.53;18.07;;;8.60;1.00;;;;;;5049127;28;20828;-59
2023/02/14 03:12:11;;;;;;;24.63;18.10;;;8.60;1.00;;;;;;5050491;28;20456;-59
2023/02/14 03:15:15;;;;;;;23.03;15.97;;;8.60;1.00;;;;;;5057466;28;20441;-59
2023/02/14 03:18:13;;;;;;;22.57;16.70;;;8.60;1.00;;;;;;5061299;28;20415;-59
2023/02/14 03:20:53;;;;;;;27.17;17.80;;;8.60;1.00;;;;;;5053809;28;20506;-59
2023/02/14 03:23:30;;;;;;;24.00;16.60;;;8.60;1.00;;;;;;5049553;28;20501;-60
2023/02/14 03:26:14;;;;;;;26.27;17.33;;;8.60;1.00;;;;;;5055705;28;20480;-59
2023/02/14 03:28:49;;;;;;;23.30;15.50;;;8.70;1.00;;;;;;5052809;28;20431;-57
2023/02/14 03:31:37;;;;;;;22.20;16.33;;;8.60;1.00;;;;;;5060455;28;20955;-58
2023/02/14 03:34:22;;;;;;;22.40;16.57;;;8.60;1.00;;;;;;5041808;28;20402;-58
2023/02/14 03:37:16;;;;;;;25.43;15.77;;;8.60;1.00;;;;;;5055571;28;20415;-59
2023/02/14 03:40:20;;;;;;;22.20;15.70;;;8.50;1.00;;;;;;5057263;28;20890;-60
2023/02/14 03:43:05;;;;;;;22.67;16.30;;;8.50;1.00;;;;;;5044587;28;20452;-60
2023/02/14 03:45:50;;;;;;;20.60;15.60;;;8.50;1.00;;;;;;5036233;28;20449;-58
2023/02/14 03:48:20;;;;;;;24.73;17.20;;;8.50;1.00;;;;;;5068824;28;20449;-58
2023/02/14 03:50:48;;;;;;;25.47;17.50;;;8.50;1.00;;;;;;5058918;28;20478;-59
2023/02/14 03:53:17;;;;;;;25.13;15.33;;;8.40;1.00;;;;;;5058774;28;20514;-59
2023/02/14 03:55:50;;;;;;;24.30;16.03;;;8.40;1.00;;;;;;5061062;28;20412;-58
2023/02/14 03:58:25;;;;;;;25.20;17.00;;;8.40;1.00;;;;;;5055498;28;20445;-58
2023/02/14 04:00:57;;;;;;;21.37;16.50;;;8.40;1.00;;;;;;5055534;28;20445;-59
2023/02/14 04:03:26;;;;;;;23.60;16.10;;;8.40;1.00;;;;;;5056954;28;20430;-59
2023/02/14 04:05:52;;;;;;;28.57;18.03;;;8.40;1.00;;;;;;5062606;28;20538;-60
2023/02/14 04:08:27;;;;;;;18.23;14.57;;;8.50;1.00;;;;;;5055438;28;20402;-59
2023/02/14 04:10:57;;;;;;;25.73;16.87;;;8.40;1.00;;;;;;5059269;28;20470;-58
2023/02/14 04:13:22;;;;;;;29.20;15.97;;;8.20;1.00;;;;;;5060366;28;20538;-59
2023/02/14 04:15:48;;;;;;;22.60;15.30;;;8.30;1.00;;;;;;5054989;28;20501;-58
2023/02/14 04:20:59;;;;;;;23.97;16.43;;;8.30;1.00;;;;;;5057778;28;20190;-59
2023/02/14 04:23:24;;;;;;;24.33;17.23;;;8.30;1.00;;;;;;5055158;28;20465;-58
2023/02/14 04:25:50;;;;;;;24.23;17.37;;;8.30;1.00;;;;;;5046572;28;20439;-59
2023/02/14 04:28:15;;;;;;;25.33;16.43;;;8.40;1.00;;;;;;5055744;28;20188;-59
2023/02/14 04:30:41;;;;;;;26.83;17.30;;;8.50;1.00;;;;;;5057195;28;20215;-58
2023/02/14 04:33:07;;;;;;;24.40;17.07;;;8.60;1.00;;;;;;5065408;28;20192;-58
2023/02/14 04:35:34;;;;;;;22.13;16.97;;;8.50;1.00;;;;;;5074678;28;20190;-59
2023/02/14 04:38:00;;;;;;;24.83;15.90;;;8.60;1.00;;;;;;5065977;28;20271;-59
2023/02/14 04:40:27;;;;;;;25.40;16.37;;;8.60;1.00;;;;;;5074288;28;20437;-59
2023/02/14 04:42:53;;;;;;;22.60;15.80;;;8.60;1.00;;;;;;5068910;28;20477;-58
2023/02/14 04:45:18;;;;;;;21.43;16.83;;;8.70;1.00;;;;;;5073614;28;20467;-58
2023/02/14 04:47:44;;;;;;;23.13;15.90;;;8.60;1.00;;;;;;5067728;28;20618;-58
2023/02/14 04:50:10;;;;;;;16.00;11.90;;;8.60;1.00;;;;;;5036925;28;20209;-58
2023/02/14 04:52:36;;;;;;;15.70;12.73;;;8.50;1.00;;;;;;5064614;28;20525;-59
2023/02/14 04:55:03;;;;;;;20.93;15.53;;;8.40;1.00;;;;;;5047435;28;20564;-58
2023/02/14 04:57:29;;;;;;;21.07;14.43;;;8.40;1.00;;;;;;5046294;28;20191;-59
2023/02/14 04:59:54;;;;;;;20.70;15.60;;;8.40;1.00;;;;;;5066993;28;20439;-59
2023/02/14 05:02:20;;;;;;;23.83;16.80;;;8.40;1.00;;;;;;5044946;28;20989;-59
2023/02/14 05:04:46;;;;;;;23.53;16.60;;;8.50;1.00;;;;;;5051406;28;20188;-58
2023/02/14 05:07:11;;;;;;;24.53;16.90;;;8.60;1.00;;;;;;5053546;28;20199;-57
2023/02/14 05:09:37;;;;;;;22.03;16.83;;;8.60;1.00;;;;;;5062523;28;20203;-58
2023/02/14 05:12:03;;;;;;;25.00;17.03;;;8.60;1.00;;;;;;5055632;28;20196;-58
2023/02/14 05:14:29;;;;;;;26.83;15.60;;;8.60;1.00;;;;;;5055533;28;20268;-58
2023/02/14 05:16:54;;;;;;;25.23;16.70;;;8.70;1.00;;;;;;5042306;28;20430;-58
2023/02/14 05:19:20;;;;;;;24.10;16.20;;;8.60;1.00;;;;;;5053788;28;20218;-58
2023/02/14 05:21:46;;;;;;;23.17;16.80;;;8.60;1.00;;;;;;5051865;28;20699;-59
2023/02/14 05:24:11;;;;;;;22.97;16.17;;;8.60;1.00;;;;;;5054104;28;20189;-58
2023/02/14 05:26:37;;;;;;;22.33;16.13;;;8.60;1.00;;;;;;5053439;28;20551;-58
2023/02/14 05:29:03;;;;;;;22.30;16.80;;;8.60;1.00;;;;;;5053179;28;20191;-58
2023/02/14 05:31:28;;;;;;;30.27;15.80;;;8.60;1.00;;;;;;5050977;28;20214;-57
2023/02/14 05:33:54;;;;;;;25.50;16.07;;;8.60;1.00;;;;;;5047955;28;20180;-57
2023/02/14 05:36:20;;;;;;;23.47;15.77;;;8.50;1.00;;;;;;5047587;28;20183;-58
2023/02/14 05:38:46;;;;;;;24.60;15.93;;;8.50;1.00;;;;;;5046104;28;20241;-57
2023/02/14 05:41:11;;;;;;;22.37;15.23;;;8.40;1.00;;;;;;5058482;28;20457;-59
2023/02/14 05:43:37;;;;;;;19.30;14.83;;;8.40;1.00;;;;;;5053093;28;20186;-58
2023/02/14 05:46:03;;;;;;;22.23;15.83;;;8.50;1.00;;;;;;5052967;28;20542;-59
2023/02/14 05:48:29;;;;;;;20.50;15.00;;;8.40;1.00;;;;;;5041110;28;20419;-59
2023/02/14 05:50:54;;;;;;;20.40;14.53;;;8.40;1.00;;;;;;5045936;28;20500;-57
2023/02/14 05:53:20;;;;;;;20.80;14.50;;;8.50;1.00;;;;;;5049736;28;20222;-59
2023/02/14 05:55:46;;;;;;;21.53;15.83;;;8.60;1.00;;;;;;5044114;28;20534;-57
2023/02/14 05:58:12;;;;;;;21.00;14.23;;;8.70;1.00;;;;;;5044778;28;20180;-60
2023/02/14 06:00:38;;;;;;;14.63;12.33;;;8.70;1.00;;;;;;5053780;28;20447;-58
2023/02/14 06:03:03;;;;;;;11.00;9.80;;;8.70;1.00;;;;;;5051770;28;20618;-57
2023/02/14 06:05:29;;;;;;;15.00;12.07;;;8.60;1.00;;;;;;5053015;28;20556;-57
2023/02/14 06:07:54;;;;;;;21.47;15.47;;;8.50;1.00;;;;;;5068874;28;20184;-59
2023/02/14 06:10:22;;;;;;;16.33;13.27;;;8.50;1.00;;;;;;5063410;28;20204;-57
2023/02/14 06:12:50;;;;;;;18.93;14.20;;;8.50;1.00;;;;;;5052765;28;20183;-58
2023/02/14 06:15:16;;;;;;;13.87;11.90;;;8.50;1.00;;;;;;5053102;28;20540;-59
2023/02/14 06:17:41;;;;;;;15.90;13.00;;;8.50;1.00;;;;;;5055455;28;20962;-58
2023/02/14 06:20:10;;;;;;;20.43;13.77;;;8.50;1.00;;;;;;5052471;28;20402;-59
2023/02/14 06:22:37;;;;;;;23.10;14.00;;;8.50;1.00;;;;;;5044118;28;20253;-58
2023/02/14 06:25:05;;;;;;;19.93;15.30;;;8.60;1.00;;;;;;5050984;28;20416;-57
2023/02/14 06:27:31;;;;;;;18.53;13.70;;;8.70;1.00;;;;;;5060502;28;20434;-58
2023/02/14 06:29:56;;;;;;;15.80;13.20;;;8.70;1.00;;;;;;5052133;28;20496;-57
2023/02/14 06:32:22;;;;;;;20.50;14.93;;;8.70;1.00;;;;;;5042909;28;20439;-60
2023/02/14 06:34:48;;;;;;;16.37;13.20;;;8.70;1.00;;;;;;5050637;28;20185;-56
2023/02/14 06:37:13;;;;;;;20.73;16.70;;;8.70;1.00;;;;;;5048787;28;20180;-58
2023/02/14 06:39:39;;;;;;;20.37;15.33;;;8.70;1.00;;;;;;5052260;28;20296;-59
2023/02/14 06:42:05;;;;;;;20.00;16.27;;;8.70;1.00;;;;;;5048900;28;20195;-58
2023/02/14 06:44:30;;;;;;;19.07;15.23;;;8.70;1.00;;;;;;5049652;28;20173;-58
2023/02/14 06:46:56;;;;;;;16.00;12.27;;;8.70;1.00;;;;;;5047332;28;20659;-60
2023/02/14 06:49:22;;;;;;;23.10;14.50;;;8.70;1.00;;;;;;5043925;28;20250;-58
2023/02/14 06:51:49;;;;;;;22.13;16.13;;;8.70;1.00;;;;;;5050864;28;20547;-58
2023/02/14 06:54:15;;;;;;;22.63;16.60;;;8.80;1.00;;;;;;5042722;28;20448;-58
2023/02/14 06:56:40;;;;;;;21.37;16.27;;;8.80;1.00;;;;;;5051675;28;20900;-58
2023/02/14 06:59:06;;;;;;;24.60;15.60;;;8.80;1.00;;;;;;5041426;28;20500;-58
2023/02/14 07:01:32;;;;;;;20.00;15.00;;;8.80;1.00;;;;;;5051896;28;20191;-59
2023/02/14 07:03:57;;;;;;;21.03;15.57;;;8.80;1.00;;;;;;5054716;28;20261;-59
2023/02/14 07:06:23;;;;;;;20.67;14.50;;;8.80;1.00;;;;;;5060303;28;20192;-56
2023/02/14 07:08:50;;;;;;;19.83;14.33;;;8.70;1.00;;;;;;5047007;28;20633;-58
2023/02/14 07:11:15;;;;;;;22.00;15.40;;;8.60;1.00;;;;;;5045308;28;20454;-58
2023/02/14 07:13:42;;;;;;;21.80;14.83;;;8.70;1.00;;;;;;5066868;28;20178;-59
2023/02/14 07:16:08;;;;;;;22.33;15.30;;;8.70;1.00;;;;;;5055690;28;20212;-58
2023/02/14 07:18:34;;;;;;;26.13;15.20;;;8.80;1.00;;;;;;5056030;28;20436;-58
2023/02/14 07:21:00;;;;;;;22.80;15.83;;;8.80;1.00;;;;;;5049754;28;20860;-59
2023/02/14 07:23:25;;;;;;;24.63;15.50;;;8.80;1.00;;;;;;5066583;28;20270;-59
2023/02/14 07:25:51;;;;;;;21.80;17.10;;;8.80;1.00;;;;;;5063717;28;20198;-58
2023/02/14 07:28:16;;;;;;;26.33;17.27;;;8.80;1.00;;;;;;5053802;28;20184;-57
2023/02/14 07:30:42;;;;;;;23.27;15.90;;;8.80;1.00;;;;;;5059353;28;20210;-58
2023/02/14 07:33:08;;;;;;;22.50;16.93;;;8.90;1.00;;;;;;5054409;28;20318;-58
2023/02/14 07:35:34;;;;;;;26.53;18.30;;;8.90;1.00;;;;;;5059505;28;20256;-58
2023/02/14 07:38:00;;;;;;;24.97;18.00;;;8.90;1.00;;;;;;5052873;28;20193;-58
2023/02/14 07:40:27;;;;;;;25.90;17.30;;;9.00;1.00;;;;;;5050849;28;20425;-58
2023/02/14 07:42:54;;;;;;;25.00;18.70;;;9.00;1.00;;;;;;5058200;28;20424;-58
2023/02/14 07:45:20;;;;;;;24.17;16.70;;;9.00;1.00;;;;;;5061843;28;20972;-59
2023/02/14 07:47:54;;;;;;;23.47;17.30;;;9.00;1.00;;;;;;5052402;28;20445;-57
2023/02/14 07:50:21;;;;;;;27.53;17.77;;;9.00;1.00;;;;;;5055243;28;20466;-59
2023/02/14 07:52:47;;;;;;;27.67;18.93;;;9.00;1.00;;;;;;5049256;28;20445;-59
2023/02/14 07:55:13;;;;;;;28.53;20.53;;;9.00;1.00;;;;;;5058050;28;20832;-58
2023/02/14 07:57:39;;;;;;;24.20;16.50;;;9.00;1.00;;;;;;5055165;28;20192;-58
2023/02/14 08:00:06;;;;;;;26.13;15.70;;;9.20;1.00;;;;;;5060419;28;20443;-57
2023/02/14 08:02:31;;;;;;;27.53;18.00;;;9.20;1.00;;;;;;5058297;28;20211;-59
2023/02/14 08:04:57;;;;;;;23.00;16.50;;;9.30;1.00;;;;;;5063024;28;21187;-59
2023/02/14 08:07:23;;;;;;;26.00;18.63;;;9.30;1.00;;;;;;5050442;28;20234;-58
2023/02/14 08:09:48;;;;;;;18.47;13.70;;;9.20;1.00;;;;;;5060536;28;20212;-57
2023/02/14 08:16:03;;;;;;;20.70;15.40;;;9.20;1.00;;;;;;5055928;28;20182;-58
2023/02/14 08:17:44;;;;;;;21.30;16.07;;;9.00;1.00;;;;;;5054020;28;20469;-58
2023/02/14 08:20:10;;;;;;;23.17;16.63;;;9.10;1.00;;;;;;5056104;28;20966;-57
2023/02/14 08:22:35;;;;;;;23.63;15.13;;;9.30;1.00;;;;;;5056884;28;20185;-59
2023/02/14 08:25:01;;;;;;;21.77;14.90;;;9.40;1.00;;;;;;5053851;28;20485;-58
2023/02/14 08:27:27;;;;;;;21.03;16.60;;;9.30;1.00;;;;;;5067112;28;20180;-58
2023/02/14 08:29:52;;;;;;;23.37;15.47;;;9.40;1.00;;;;;;5060863;28;20197;-57
2023/02/14 08:32:19;;;;;;;20.43;15.50;;;9.40;1.00;;;;;;5056143;28;20258;-58
2023/02/14 08:34:45;;;;;;;21.90;14.03;;;9.40;1.00;;;;;;5060053;28;20188;-59
2023/02/14 08:37:11;;;;;;;21.87;16.30;;;9.30;1.00;;;;;;5050927;28;20446;-57
2023/02/14 08:39:38;;;;;;;17.83;14.73;;;9.10;1.00;;;;;;5045913;28;20936;-59
2023/02/14 08:42:04;;;;;;;22.03;15.60;;;9.10;1.00;;;;;;5057397;28;20904;-58
2023/02/14 08:44:30;;;;;;;19.50;14.93;;;9.20;1.00;;;;;;5056523;28;20435;-59
2023/02/14 08:46:55;;;;;;;18.70;14.43;;;9.30;1.00;;;;;;5041680;28;20448;-59
2023/02/14 08:49:21;;;;;;;20.50;14.67;;;9.40;1.00;;;;;;5039111;28;20266;-58
2023/02/14 08:51:46;;;;;;;22.43;14.33;;;9.40;1.00;;;;;;5067560;28;20181;-58
2023/02/14 08:54:12;;;;;;;22.97;16.37;;;9.50;1.00;;;;;;5054113;28;20307;-59
2023/02/14 08:56:39;;;;;;;18.33;13.60;;;9.50;1.00;;;;;;5054387;28;20530;-60
2023/02/14 08:59:05;;;;;;;20.80;14.43;;;9.60;1.00;;;;;;5054137;28;20188;-59
2023/02/14 09:01:30;;;;;;;18.70;13.40;;;9.50;1.00;;;;;;5054316;28;20398;-58
2023/02/14 09:03:56;;;;;;;16.77;12.53;;;9.60;1.00;;;;;;5053935;28;20187;-58
2023/02/14 09:06:22;;;;;;;16.00;11.63;;;9.40;1.00;;;;;;5053879;28;20176;-58
2023/02/14 09:08:48;;;;;;;20.27;13.60;;;9.40;1.00;;;;;;5053830;28;20431;-59
2023/02/14 09:11:17;;;;;;;18.27;13.00;;;9.30;1.00;;;;;;5054299;28;20592;-58
2023/02/14 09:13:44;;;;;;;20.20;13.93;;;9.30;1.00;;;;;;5060892;28;20212;-58
2023/02/14 09:16:12;;;;;;;18.90;13.57;;;9.40;1.00;;;;;;5053607;28;20438;-60
2023/02/14 09:18:38;;;;;;;20.20;13.80;;;9.50;1.00;;;;;;5053722;28;20497;-58
2023/02/14 09:21:34;;;;;;;18.47;14.40;;;9.60;1.00;;;;;;5061653;28;20422;-59
2023/02/14 09:23:59;;;;;;;18.37;13.00;;;9.60;1.00;;;;;;5051417;28;20497;-59
2023/02/14 09:26:25;;;;;;;23.00;15.20;;;9.60;1.00;;;;;;5053120;28;20444;-56
2023/02/14 09:28:51;;;;;;;17.77;15.60;;;9.70;1.00;;;;;;5064578;28;20277;-58
2023/02/14 09:31:19;;;;;;;21.37;15.30;;;9.80;1.00;;;;;;5068204;28;20216;-58
2023/02/14 09:33:45;;;;;;;17.80;14.57;;;9.80;1.00;;;;;;5053260;28;20211;-58
2023/02/14 09:36:11;;;;;;;18.90;14.07;;;9.80;1.00;;;;;;5071043;28;20968;-59
2023/02/14 09:38:37;;;;;;;17.43;12.70;;;9.90;1.00;;;;;;5058831;28;20471;-59
2023/02/14 09:41:15;;;;;;;17.20;12.80;;;9.90;1.00;;;;;;5054164;28;20188;-59
2023/02/14 09:43:54;;;;;;;14.80;12.47;;;10.00;1.00;;;;;;5067398;28;20628;-58
2023/02/14 09:46:23;;;;;;;13.50;11.37;;;10.00;1.00;;;;;;5062294;28;20970;-58
2023/02/14 09:48:50;;;;;;;17.50;12.43;;;10.10;1.00;;;;;;5054147;28;20545;-57
2023/02/14 09:51:22;;;;;;;13.10;10.50;;;10.00;1.00;;;;;;5061308;28;20466;-58
2023/02/14 09:53:57;;;;;;;16.13;10.20;;;9.90;1.00;;;;;;5066826;28;20513;-57
2023/02/14 09:56:52;;;;;;;17.83;12.20;;;10.10;1.00;;;;;;5053020;28;20499;-57
2023/02/14 09:59:36;;;;;;;16.27;11.83;;;9.90;1.00;;;;;;5053554;28;20487;-59
2023/02/14 10:02:20;;;;;;;12.83;11.50;;;9.80;1.00;;;;;;5036038;28;20450;-60
2023/02/14 10:05:12;;;;;;;15.17;11.30;;;9.90;1.00;;;;;;5052391;28;20416;-58
2023/02/14 10:07:55;;;;;;;14.27;12.10;;;10.00;1.00;;;;;;5049520;28;20473;-59
2023/02/14 10:10:37;;;;;;;18.67;12.70;;;9.90;1.00;;;;;;5066381;28;21004;-59
2023/02/14 10:13:25;;;;;;;16.10;13.00;;;9.80;1.00;;;;;;5069720;28;20430;-57
2023/02/14 10:16:02;;;;;;;17.40;14.10;;;9.80;1.00;;;;;;5063786;28;20416;-60
2023/02/14 10:18:54;;;;;;;15.70;12.53;;;9.90;1.00;;;;;;5055957;28;20429;-59
2023/02/14 10:21:26;;;;;;;17.17;11.83;;;10.00;1.00;;;;;;5072062;28;20449;-59
2023/02/14 10:24:15;;;;;;;13.73;11.20;;;10.00;1.00;;;;;;5057430;28;20457;-58
2023/02/14 10:26:41;;;;;;;19.20;13.13;;;10.00;1.00;;;;;;5065241;28;20416;-58
2023/02/14 10:29:13;;;;;;;10.70;9.33;;;10.10;1.00;;;;;;5057840;28;21040;-59
2023/02/14 10:31:57;;;;;;;13.70;11.43;;;10.10;1.00;;;;;;5063829;28;20207;-59
2023/02/14 10:34:48;;;;;;;16.50;12.90;;;10.20;1.00;;;;;;5062217;28;20528;-58
2023/02/14 10:37:51;;;;;;;14.30;12.13;;;10.20;1.00;;;;;;5053613;28;20480;-58
2023/02/14 10:40:22;;;;;;;15.47;11.70;;;10.30;1.00;;;;;;5044962;28;20493;-57
2023/02/14 10:43:04;;;;;;;20.80;12.63;;;10.40;1.00;;;;;;5055670;28;20435;-57
2023/02/14 10:45:54;;;;;;;15.57;12.37;;;10.30;1.00;;;;;;5065355;28;20444;-58
2023/02/14 10:48:44;;;;;;;13.93;11.10;;;10.20;1.00;;;;;;5076227;28;20955;-59
2023/02/14 10:51:34;;;;;;;15.67;12.67;;;10.20;1.00;;;;;;5073447;28;20818;-58
2023/02/14 10:54:08;;;;;;;14.87;12.37;;;10.20;1.00;;;;;;5074068;28;20444;-58
2023/02/14 10:56:42;;;;;;;15.03;11.43;;;10.20;1.00;;;;;;5055844;28;20438;-58
2023/02/14 10:59:27;;;;;;;17.10;12.90;;;10.20;1.00;;;;;;5049269;28;20468;-58
2023/02/14 11:01:55;;;;;;;15.40;11.77;;;10.30;1.00;;;;;;5036039;28;20471;-58
2023/02/14 11:04:23;;;;;;;17.33;13.03;;;10.30;1.00;;;;;;5049392;28;20483;-58
2023/02/14 11:06:49;;;;;;;16.33;12.07;;;10.30;1.00;;;;;;5065481;28;20441;-59
2023/02/14 11:09:18;;;;;;;16.13;13.07;;;10.40;1.00;;;;;;5055552;28;20926;-58
2023/02/14 11:11:47;;;;;;;19.23;13.63;;;10.40;1.00;;;;;;5064599;28;20204;-58
2023/02/14 11:14:20;;;;;;;20.70;13.20;;;10.40;1.00;;;;;;5058796;28;20446;-58
2023/02/14 11:16:50;;;;;;;12.73;11.00;;;10.40;1.00;;;;;;5057802;28;20454;-58
2023/02/14 11:19:29;;;;;;;15.90;13.00;;;10.40;1.00;;;;;;5046085;28;20433;-58
2023/02/14 11:21:56;;;;;;;17.77;13.53;;;10.30;1.00;;;;;;5059223;28;20441;-59
2023/02/14 11:24:28;;;;;;;15.53;13.10;;;10.30;1.00;;;;;;5070577;28;20458;-57
2023/02/14 11:27:00;;;;;;;18.07;12.90;;;10.30;1.00;;;;;;5051468;28;20465;-59
2023/02/14 11:29:26;;;;;;;19.83;14.50;;;10.30;1.00;;;;;;5072640;28;20426;-58
2023/02/14 11:31:52;;;;;;;14.73;11.97;;;10.30;1.00;;;;;;5066728;28;20452;-58
2023/02/14 11:34:30;;;;;;;16.73;13.57;;;10.40;1.00;;;;;;5065189;28;20176;-59
2023/02/14 11:36:55;;;;;;;23.30;13.93;;;10.40;1.00;;;;;;5071557;28;20271;-58
2023/02/14 11:39:31;;;;;;;15.53;12.33;;;10.50;1.00;;;;;;5070929;28;20524;-58
2023/02/14 11:41:59;;;;;;;19.83;13.67;;;10.60;1.00;;;;;;5061856;28;20184;-59
2023/02/14 11:44:28;;;;;;;16.27;12.60;;;10.70;1.00;;;;;;5068439;28;20928;-57
2023/02/14 11:46:56;;;;;;;15.07;13.47;;;10.70;1.00;;;;;;5063143;28;20405;-58
2023/02/14 11:49:33;;;;;;;14.50;12.40;;;10.80;1.00;;;;;;5063048;28;20456;-59
2023/02/14 11:52:10;;;;;;;15.60;12.30;;;10.90;1.00;;;;;;5064171;28;20497;-59
2023/02/14 11:54:39;;;;;;;16.70;12.33;;;10.80;1.00;;;;;;5055776;28;20491;-59
2023/02/14 11:57:13;;;;;;;13.73;11.27;;;10.70;1.00;;;;;;5061826;28;20446;-57
2023/02/14 11:59:47;;;;;;;14.13;11.57;;;10.60;1.00;;;;;;5063187;28;20498;-58
2023/02/14 12:02:27;;;;;;;16.83;11.87;;;10.50;1.00;;;;;;5066924;28;20409;-58
2023/02/14 12:05:25;;;;;;;14.13;10.60;;;10.60;1.00;;;;;;5070042;28;20431;-59
2023/02/14 12:08:01;;;;;;;14.27;10.70;;;10.60;1.00;;;;;;5060763;28;20413;-59
2023/02/14 12:10:29;;;;;;;16.30;12.50;;;10.50;1.00;;;;;;5071806;28;20470;-58
2023/02/14 12:12:59;;;;;;;11.50;10.10;;;10.60;1.00;;;;;;5062630;28;20519;-58
2023/02/14 12:15:28;;;;;;;16.13;11.47;;;10.50;1.00;;;;;;5070333;28;20405;-58
2023/02/14 12:18:25;;;;;;;14.03;11.07;;;10.40;1.00;;;;;;5054908;28;20458;-58
2023/02/14 12:21:11;;;;;;;16.90;11.03;;;10.40;1.00;;;;;;5054840;28;20420;-61
2023/02/14 12:23:58;;;;;;;14.23;11.07;;;10.50;1.00;;;;;;5057416;28;20504;-58
2023/02/14 12:26:45;;;;;;;14.07;10.93;;;10.40;1.00;;;;;;5060328;28;20456;-59
2023/02/14 12:29:28;;;;;;;12.77;11.20;;;10.50;1.00;;;;;;5065906;28;20410;-58
2023/02/14 12:31:58;;;;;;;18.30;10.73;;;10.40;1.00;;;;;;5063347;28;20419;-57
2023/02/14 12:34:24;;;;;;;12.07;10.43;;;10.30;1.00;;;;;;5068018;28;20434;-58
2023/02/14 12:37:07;;;;;;;17.23;11.40;;;10.30;1.00;;;;;;5064488;28;20416;-58
2023/02/14 12:39:48;;;;;;;11.63;9.80;;;10.30;1.00;;;;;;5072034;28;20176;-58
2023/02/14 12:42:25;;;;;;;14.50;10.60;;;10.50;1.00;;;;;;5065294;28;20484;-57
2023/02/14 12:45:19;;;;;;;14.60;11.73;;;10.50;1.00;;;;;;5067030;28;20421;-58
2023/02/14 12:47:47;;;;;;;13.43;10.83;;;10.40;1.00;;;;;;5055551;28;20455;-58
2023/02/14 12:50:48;;;;;;;14.43;10.70;;;10.30;1.00;;;;;;5070630;28;20484;-59
2023/02/14 12:53:35;;;;;;;10.97;9.40;;;10.30;1.00;;;;;;5064788;28;20747;-59
2023/02/14 12:56:09;;;;;;;13.43;11.13;;;10.40;1.00;;;;;;5058785;28;20579;-57
2023/02/14 12:58:41;;;;;;;12.80;10.70;;;10.30;1.00;;;;;;5046105;28;20890;-60
2023/02/14 13:01:16;;;;;;;16.40;10.97;;;10.40;1.00;;;;;;5056216;28;20939;-58
2023/02/14 13:03:41;;;;;;;13.13;10.70;;;10.40;1.00;;;;;;5067297;28;20414;-59
2023/02/14 13:06:15;;;;;;;19.40;11.70;;;10.50;1.00;;;;;;5052900;28;21006;-59
2023/02/14 13:09:00;;;;;;;12.50;10.47;;;10.50;1.00;;;;;;5060062;28;20194;-59
2023/02/14 13:11:47;;;;;;;15.33;12.13;;;10.50;1.00;;;;;;5046998;28;20466;-59
2023/02/14 13:14:30;;;;;;;14.73;11.17;;;10.60;1.00;;;;;;5058556;28;20532;-59
2023/02/14 13:16:58;;;;;;;12.60;10.90;;;10.70;1.00;;;;;;5060335;28;20914;-59
2023/02/14 13:19:48;;;;;;;13.57;11.10;;;10.70;1.00;;;;;;5064960;28;20424;-58
2023/02/14 13:22:19;;;;;;;16.13;10.57;;;10.70;1.00;;;;;;5046399;28;20534;-58